Time;durP1;ratioP1;P1;durP2;ratioP2;P2;SDS_P1;SDS_P2;PMS_P1;PMS_P2;Temp;Humidity;BMP_temperature;BMP_pressure;BME280_temperature;BME280_humidity;BME280_pressure;Samples;Min_cycle;Max_cycle;Signal;HPM_P1;HPM_P2
2022/08/10 00:01:25;;;;;;;9.52;7.32;;;;;;;;;;5050387;28;19915;-55
2022/08/10 00:03:51;;;;;;;10.30;7.22;;;;;;;;;;5050334;28;20067;-56
2022/08/10 00:06:17;;;;;;;9.38;7.00;;;;;;;;;;5050520;28;20063;-56
2022/08/10 00:08:43;;;;;;;9.90;7.40;;;;;;;;;;5050520;28;20029;-55
2022/08/10 00:11:09;;;;;;;12.63;8.00;;;;;;;;;;5049845;28;20359;-56
2022/08/10 00:13:35;;;;;;;10.40;7.43;;;;;;;;;;5049326;28;20074;-56
2022/08/10 00:16:01;;;;;;;13.27;7.82;;;;;;;;;;5050347;28;20483;-56
2022/08/10 00:18:28;;;;;;;11.32;8.05;;;;;;;;;;5050216;28;20060;-56
2022/08/10 00:20:54;;;;;;;13.83;8.27;;;;;;;;;;5050350;28;20025;-55
2022/08/10 00:23:20;;;;;;;9.85;7.93;;;;;;;;;;5053261;28;20287;-57
2022/08/10 00:25:46;;;;;;;10.80;8.30;;;;;;;;;;5036358;28;20063;-56
2022/08/10 00:28:12;;;;;;;19.02;8.02;;;;;;;;;;5053838;28;20143;-53
2022/08/10 00:30:38;;;;;;;11.10;7.78;;;;;;;;;;5036265;28;20021;-54
2022/08/10 00:33:04;;;;;;;10.70;8.25;;;;;;;;;;5053427;28;20033;-55
2022/08/10 00:35:30;;;;;;;11.27;9.10;;;;;;;;;;5053801;28;20403;-55
2022/08/10 00:37:56;;;;;;;21.10;9.65;;;;;;;;;;5053502;28;20311;-56
2022/08/10 00:40:22;;;;;;;16.25;9.48;;;;;;;;;;5053681;28;20028;-56
2022/08/10 00:42:48;;;;;;;20.67;10.32;;;;;;;;;;5053441;28;20372;-55
2022/08/10 00:45:14;;;;;;;20.23;9.73;;;;;;;;;;5035532;28;20028;-53
2022/08/10 00:47:41;;;;;;;13.68;10.32;;;;;;;;;;5053305;28;20108;-54
2022/08/10 00:50:07;;;;;;;15.30;10.32;;;;;;;;;;5053583;28;20033;-54
2022/08/10 00:52:33;;;;;;;;;;;;;;;;;;5053578;28;20446;-56
2022/08/10 00:55:01;;;;;;;15.02;11.15;;;;;;;;;;5053745;28;19905;-56
2022/08/10 00:57:28;;;;;;;14.13;11.85;;;;;;;;;;5052535;28;20128;-53
2022/08/10 00:59:54;;;;;;;13.32;10.70;;;;;;;;;;5053699;28;20039;-54
2022/08/10 01:02:20;;;;;;;16.92;11.82;;;;;;;;;;5032188;28;20025;-56
2022/08/10 01:04:46;;;;;;;17.15;10.55;;;;;;;;;;5053279;28;20081;-57
2022/08/10 01:07:19;;;;;;;12.07;9.88;;;;;;;;;;5053120;28;20495;-56
2022/08/10 01:09:45;;;;;;;15.13;10.20;;;;;;;;;;5052627;28;20032;-53
2022/08/10 01:12:11;;;;;;;11.80;10.10;;;;;;;;;;5052027;28;20070;-55
2022/08/10 01:15:09;;;;;;;11.40;9.63;;;;;;;;;;5052637;28;20120;-56
2022/08/10 01:17:38;;;;;;;15.93;10.73;;;;;;;;;;4997740;28;20065;-53
2022/08/10 01:20:20;;;;;;;17.67;12.05;;;;;;;;;;5053058;28;20021;-56
2022/08/10 01:23:04;;;;;;;18.38;10.85;;;;;;;;;;5052715;28;20033;-56
2022/08/10 01:25:33;;;;;;;15.88;10.70;;;;;;;;;;5052935;28;20017;-57
2022/08/10 01:27:59;;;;;;;13.98;10.85;;;;;;;;;;5052592;28;20032;-55
2022/08/10 01:30:27;;;;;;;19.93;11.23;;;;;;;;;;5052732;28;20100;-54
2022/08/10 01:33:00;;;;;;;12.85;10.35;;;;;;;;;;5051663;28;20025;-53
2022/08/10 01:35:33;;;;;;;14.25;10.18;;;;;;;;;;5052479;28;20108;-54
2022/08/10 01:38:03;;;;;;;12.90;11.07;;;;;;;;;;5052722;28;20033;-56
2022/08/10 01:40:30;;;;;;;15.02;10.45;;;;;;;;;;5052293;28;20025;-56
2022/08/10 01:42:57;;;;;;;14.80;10.23;;;;;;;;;;5052140;28;20032;-53
2022/08/10 01:45:24;;;;;;;15.63;11.13;;;;;;;;;;5052502;28;20391;-54
2022/08/10 01:50:39;;;;;;;17.33;10.35;;;;;;;;;;5052728;28;20066;-53
2022/08/10 01:53:08;;;;;;;16.73;11.68;;;;;;;;;;5051876;28;20029;-55
2022/08/10 01:55:34;;;;;;;18.25;11.32;;;;;;;;;;5051654;28;20032;-53
2022/08/10 01:58:03;;;;;;;13.13;10.30;;;;;;;;;;5051688;28;20040;-53
2022/08/10 02:00:31;;;;;;;13.38;10.32;;;;;;;;;;5051958;28;20025;-55
2022/08/10 02:02:57;;;;;;;16.35;12.60;;;;;;;;;;5051510;28;20721;-55
2022/08/10 02:05:25;;;;;;;13.07;10.43;;;;;;;;;;5050966;28;20044;-55
2022/08/10 02:07:51;;;;;;;13.18;10.25;;;;;;;;;;5051545;28;20021;-56
2022/08/10 02:10:18;;;;;;;14.35;11.88;;;;;;;;;;5066208;28;20079;-56
2022/08/10 02:12:44;;;;;;;;;;;;;;;;;;5025765;28;20033;-56
2022/08/10 02:15:12;;;;;;;19.67;11.85;;;;;;;;;;5052124;28;19915;-54
2022/08/10 02:17:39;;;;;;;14.05;11.77;;;;;;;;;;5051981;28;20037;-56
2022/08/10 02:20:08;;;;;;;18.02;13.25;;;;;;;;;;5051744;28;20033;-56
2022/08/10 02:22:35;;;;;;;16.00;11.70;;;;;;;;;;5050970;28;20029;-56
2022/08/10 02:25:02;;;;;;;14.43;11.68;;;;;;;;;;5051951;28;20025;-53
2022/08/10 02:27:28;;;;;;;15.60;11.32;;;;;;;;;;5051168;28;20032;-54
2022/08/10 02:29:55;;;;;;;15.43;12.48;;;;;;;;;;5051464;28;20034;-53
2022/08/10 02:32:21;;;;;;;;;;;;;;;;;;5033794;28;20025;-55
2022/08/10 02:34:48;;;;;;;13.23;10.70;;;;;;;;;;5033175;28;19920;-53
2022/08/10 02:37:14;;;;;;;13.10;11.52;;;;;;;;;;5051114;28;20163;-55
2022/08/10 02:39:40;;;;;;;12.90;11.10;;;;;;;;;;5050675;28;20407;-56
2022/08/10 02:42:19;;;;;;;14.93;11.32;;;;;;;;;;5050630;28;20244;-56
2022/08/10 02:44:57;;;;;;;17.02;11.00;;;;;;;;;;5049429;28;20054;-56
2022/08/10 02:47:32;;;;;;;12.55;10.65;;;;;;;;;;5050976;28;20031;-53
2022/08/10 02:50:10;;;;;;;13.38;9.85;;;;;;;;;;5051021;28;20071;-56
2022/08/10 02:52:47;;;;;;;19.27;10.15;;;;;;;;;;5050667;28;20029;-54
2022/08/10 02:55:17;;;;;;;16.83;10.07;;;;;;;;;;5050578;28;20033;-56
2022/08/10 02:57:48;;;;;;;13.05;9.75;;;;;;;;;;5033492;28;20075;-53
2022/08/10 03:00:15;;;;;;;16.05;9.52;;;;;;;;;;5050867;28;20029;-54
2022/08/10 03:02:45;;;;;;;11.68;8.85;;;;;;;;;;5051263;28;20386;-53
2022/08/10 03:05:12;;;;;;;11.55;9.27;;;;;;;;;;5051830;28;20036;-56
2022/08/10 03:07:49;;;;;;;18.08;8.07;;;;;;;;;;5032959;28;20115;-56
2022/08/10 03:10:23;;;;;;;18.88;10.05;;;;;;;;;;5050393;28;20403;-56
2022/08/10 03:12:51;;;;;;;12.13;8.50;;;;;;;;;;5050984;28;20082;-53
2022/08/10 03:15:19;;;;;;;15.32;9.98;;;;;;;;;;5050947;28;20032;-55
2022/08/10 03:17:46;;;;;;;11.65;9.15;;;;;;;;;;5033270;28;20051;-54
2022/08/10 03:20:12;;;;;;;15.10;9.95;;;;;;;;;;5049493;28;20376;-56
2022/08/10 03:22:39;;;;;;;12.75;9.27;;;;;;;;;;5051056;28;20099;-56
2022/08/10 03:25:05;;;;;;;;;;;;;;;;;;5051492;28;20028;-54
2022/08/10 03:27:31;;;;;;;14.70;8.10;;;;;;;;;;5051272;28;19905;-56
2022/08/10 03:29:57;;;;;;;10.35;8.93;;;;;;;;;;5050228;28;20104;-56
2022/08/10 03:32:24;;;;;;;9.70;7.45;;;;;;;;;;5050580;28;20079;-54
2022/08/10 03:34:51;;;;;;;20.70;10.10;;;;;;;;;;5051058;28;20113;-56
2022/08/10 03:37:17;;;;;;;12.07;8.80;;;;;;;;;;5050404;28;20048;-58
2022/08/10 03:39:43;;;;;;;15.47;9.03;;;;;;;;;;5050389;28;20021;-56
2022/08/10 03:42:13;;;;;;;22.67;8.87;;;;;;;;;;5050257;28;20275;-54
2022/08/10 03:44:40;;;;;;;18.45;9.35;;;;;;;;;;5049895;28;20244;-56
2022/08/10 03:47:08;;;;;;;22.65;9.43;;;;;;;;;;5048838;28;20112;-56
2022/08/10 03:49:36;;;;;;;21.25;10.27;;;;;;;;;;5048140;28;20033;-57
2022/08/10 03:52:02;;;;;;;19.40;10.27;;;;;;;;;;5049041;28;20075;-55
2022/08/10 03:54:28;;;;;;;16.02;10.90;;;;;;;;;;5048759;28;20025;-54
2022/08/10 03:56:55;;;;;;;20.60;9.45;;;;;;;;;;5051482;28;20033;-55
2022/08/10 03:59:21;;;;;;;12.40;8.60;;;;;;;;;;5053278;28;20428;-56
2022/08/10 04:01:49;;;;;;;12.93;7.88;;;;;;;;;;5047375;28;20033;-55
2022/08/10 04:04:16;;;;;;;10.18;7.68;;;;;;;;;;5054115;28;20063;-56
2022/08/10 04:06:42;;;;;;;10.38;7.68;;;;;;;;;;5055002;28;20112;-56
2022/08/10 04:09:09;;;;;;;19.83;8.32;;;;;;;;;;5054417;28;20517;-54
2022/08/10 04:11:35;;;;;;;11.18;6.90;;;;;;;;;;5054855;28;20021;-54
2022/08/10 04:14:01;;;;;;;;;;;;;;;;;;5054941;28;20024;-56
2022/08/10 04:16:27;;;;;;;9.77;6.43;;;;;;;;;;5054895;28;20397;-55
2022/08/10 04:18:53;;;;;;;7.47;6.40;;;;;;;;;;5054605;28;20033;-56
2022/08/10 04:21:25;;;;;;;10.30;6.55;;;;;;;;;;5054719;28;20029;-57
2022/08/10 04:23:51;;;;;;;13.13;5.53;;;;;;;;;;5054360;28;20533;-52
2022/08/10 04:26:18;;;;;;;7.60;5.82;;;;;;;;;;5036763;28;20075;-55
2022/08/10 04:28:44;;;;;;;15.13;5.45;;;;;;;;;;5053876;28;20021;-55
2022/08/10 04:31:12;;;;;;;9.63;4.95;;;;;;;;;;5054632;28;20428;-55
2022/08/10 04:33:41;;;;;;;7.78;5.25;;;;;;;;;;5036277;28;20537;-56
2022/08/10 04:36:08;;;;;;;9.40;4.20;;;;;;;;;;5036397;28;20072;-55
2022/08/10 04:38:35;;;;;;;5.68;4.30;;;;;;;;;;5036335;28;20044;-56
2022/08/10 04:41:01;;;;;;;6.40;4.30;;;;;;;;;;5054503;28;20061;-53
2022/08/10 04:43:27;;;;;;;9.13;3.92;;;;;;;;;;5054060;28;20059;-54
2022/08/10 04:45:53;;;;;;;8.48;4.30;;;;;;;;;;5054183;28;20531;-53
2022/08/10 04:48:21;;;;;;;9.35;4.18;;;;;;;;;;5054022;28;20376;-53
2022/08/10 04:50:47;;;;;;;8.32;4.03;;;;;;;;;;5054153;28;20021;-56
2022/08/10 04:53:13;;;;;;;12.77;5.07;;;;;;;;;;5054026;28;20072;-55
2022/08/10 04:55:39;;;;;;;8.10;5.07;;;;;;;;;;5054027;28;20025;-54
2022/08/10 04:58:05;;;;;;;15.63;5.30;;;;;;;;;;5053877;28;20056;-56
2022/08/10 05:00:31;;;;;;;11.23;4.27;;;;;;;;;;5053607;28;20259;-57
2022/08/10 05:02:57;;;;;;;10.52;3.97;;;;;;;;;;5053147;28;20032;-55
2022/08/10 05:05:23;;;;;;;7.60;3.63;;;;;;;;;;5053247;28;20025;-53
2022/08/10 05:07:49;;;;;;;8.07;3.33;;;;;;;;;;5052684;28;20052;-55
2022/08/10 05:10:18;;;;;;;7.72;3.58;;;;;;;;;;5053669;28;20279;-53
2022/08/10 05:12:45;;;;;;;5.83;3.70;;;;;;;;;;5052971;28;20052;-56
2022/08/10 05:15:13;;;;;;;4.53;2.92;;;;;;;;;;5053313;28;20252;-55
2022/08/10 05:17:40;;;;;;;8.77;3.05;;;;;;;;;;5053464;28;20044;-53
2022/08/10 05:20:06;;;;;;;5.30;2.47;;;;;;;;;;5053092;28;20100;-55
2022/08/10 05:22:34;;;;;;;7.97;2.63;;;;;;;;;;5053140;28;20072;-55
2022/08/10 05:25:00;;;;;;;5.10;2.60;;;;;;;;;;5053164;28;20040;-56
2022/08/10 05:27:26;;;;;;;12.32;3.15;;;;;;;;;;5053045;28;20514;-53
2022/08/10 05:29:52;;;;;;;8.63;2.40;;;;;;;;;;5052813;28;20028;-56
2022/08/10 05:32:18;;;;;;;8.40;3.70;;;;;;;;;;5052727;28;20750;-55
2022/08/10 05:34:44;;;;;;;4.88;2.45;;;;;;;;;;5052606;28;20036;-53
2022/08/10 05:37:11;;;;;;;6.15;2.35;;;;;;;;;;5035048;28;20483;-53
2022/08/10 05:39:38;;;;;;;4.70;2.60;;;;;;;;;;5035049;28;20029;-54
2022/08/10 05:42:05;;;;;;;8.60;3.10;;;;;;;;;;5052700;28;20033;-53
2022/08/10 05:44:31;;;;;;;12.20;2.75;;;;;;;;;;5052782;28;20402;-53
2022/08/10 05:46:57;;;;;;;7.25;2.20;;;;;;;;;;5052563;28;20542;-51
2022/08/10 05:49:24;;;;;;;13.15;3.22;;;;;;;;;;5052829;28;20044;-51
2022/08/10 05:51:50;;;;;;;10.95;3.63;;;;;;;;;;5034935;28;20021;-54
2022/08/10 05:54:16;;;;;;;7.97;2.70;;;;;;;;;;5052498;28;20075;-55
2022/08/10 05:56:44;;;;;;;5.30;2.42;;;;;;;;;;5052582;28;20120;-55
2022/08/10 05:59:12;;;;;;;6.00;2.38;;;;;;;;;;5051868;28;20029;-57
2022/08/10 06:01:42;;;;;;;8.05;2.42;;;;;;;;;;5052425;28;20033;-56
2022/08/10 06:04:09;;;;;;;7.40;2.95;;;;;;;;;;5052097;28;20029;-55
2022/08/10 06:06:36;;;;;;;5.00;3.00;;;;;;;;;;5062197;28;20604;-56
2022/08/10 06:09:02;;;;;;;9.93;3.20;;;;;;;;;;5054813;28;20452;-54
2022/08/10 06:11:30;;;;;;;5.85;2.10;;;;;;;;;;5034562;28;20091;-54
2022/08/10 06:16:42;;;;;;;14.20;2.80;;;;;;;;;;5052471;28;20044;-54
2022/08/10 06:19:09;;;;;;;5.82;2.08;;;;;;;;;;5051460;28;20025;-56
2022/08/10 06:21:35;;;;;;;6.28;2.53;;;;;;;;;;5051489;28;20032;-55
2022/08/10 06:24:02;;;;;;;4.80;2.38;;;;;;;;;;5051910;28;20155;-54
2022/08/10 06:26:28;;;;;;;5.55;2.40;;;;;;;;;;5051715;28;20025;-55
2022/08/10 06:28:56;;;;;;;3.45;2.65;;;;;;;;;;5052001;28;20147;-55
2022/08/10 06:31:23;;;;;;;3.72;1.95;;;;;;;;;;5051830;28;20445;-56
2022/08/10 06:33:49;;;;;;;4.63;1.98;;;;;;;;;;5051677;28;20071;-56
2022/08/10 06:36:16;;;;;;;3.75;2.25;;;;;;;;;;5033790;28;20035;-55
2022/08/10 06:38:44;;;;;;;7.57;2.25;;;;;;;;;;5051352;28;20056;-56
2022/08/10 06:41:18;;;;;;;6.53;2.05;;;;;;;;;;5051502;28;20064;-56
2022/08/10 06:43:45;;;;;;;7.05;2.33;;;;;;;;;;5051601;28;20029;-57
2022/08/10 06:46:12;;;;;;;5.30;2.38;;;;;;;;;;5051740;28;20460;-57
2022/08/10 06:48:46;;;;;;;8.05;1.77;;;;;;;;;;5051336;28;20021;-56
2022/08/10 06:51:14;;;;;;;3.63;1.80;;;;;;;;;;5051539;28;20029;-50
2022/08/10 06:53:51;;;;;;;7.75;2.25;;;;;;;;;;5051200;28;20027;-51
2022/08/10 06:56:25;;;;;;;4.95;2.25;;;;;;;;;;5051730;28;20028;-51
2022/08/10 06:58:55;;;;;;;4.43;2.42;;;;;;;;;;5051278;28;20024;-52
2022/08/10 07:01:24;;;;;;;7.78;1.95;;;;;;;;;;5051154;28;20488;-51
2022/08/10 07:03:56;;;;;;;7.78;2.00;;;;;;;;;;5033330;28;20028;-50
2022/08/10 07:06:22;;;;;;;9.73;1.92;;;;;;;;;;5051104;28;20068;-50
2022/08/10 07:08:50;;;;;;;6.72;1.70;;;;;;;;;;5050773;28;20765;-50
2022/08/10 07:11:18;;;;;;;3.08;1.88;;;;;;;;;;5051414;28;20021;-50
2022/08/10 07:13:45;;;;;;;7.28;1.70;;;;;;;;;;5051057;28;20515;-50
2022/08/10 07:16:12;;;;;;;11.13;2.20;;;;;;;;;;5051151;28;20089;-50
2022/08/10 07:18:38;;;;;;;;;;;;;;;;;;5051632;28;20033;-51
2022/08/10 07:21:05;;;;;;;7.57;2.10;;;;;;;;;;5051152;28;20045;-51
2022/08/10 07:23:31;;;;;;;6.97;2.20;;;;;;;;;;5051101;28;20041;-52
2022/08/10 07:25:58;;;;;;;5.07;1.90;;;;;;;;;;5051206;28;20021;-50
2022/08/10 07:28:25;;;;;;;8.05;2.00;;;;;;;;;;5050389;28;20029;-51
2022/08/10 07:30:51;;;;;;;;;;;;;;;;;;5052256;28;20517;-51
2022/08/10 07:33:18;;;;;;;9.45;2.20;;;;;;;;;;5055131;28;20403;-51
2022/08/10 07:35:45;;;;;;;12.75;2.42;;;;;;;;;;5054880;28;20060;-51
2022/08/10 07:38:13;;;;;;;13.77;2.30;;;;;;;;;;5054894;28;20593;-51
2022/08/10 07:40:39;;;;;;;10.63;2.22;;;;;;;;;;5055159;28;20040;-50
2022/08/10 07:43:06;;;;;;;4.22;1.95;;;;;;;;;;5054995;28;20017;-53
2022/08/10 07:45:35;;;;;;;8.55;2.47;;;;;;;;;;5055069;28;20029;-50
2022/08/10 07:48:02;;;;;;;9.98;1.90;;;;;;;;;;5054337;28;20078;-50
2022/08/10 07:50:29;;;;;;;5.50;2.22;;;;;;;;;;5055067;28;20029;-51
2022/08/10 07:52:59;;;;;;;4.97;1.50;;;;;;;;;;5036557;28;20028;-53
2022/08/10 07:55:25;;;;;;;10.27;2.00;;;;;;;;;;5054773;28;20032;-55
2022/08/10 07:57:53;;;;;;;7.45;2.13;;;;;;;;;;5054310;28;20029;-57
2022/08/10 08:00:20;;;;;;;8.02;1.77;;;;;;;;;;5053903;28;20025;-55
2022/08/10 08:02:54;;;;;;;9.00;1.92;;;;;;;;;;5053721;28;20395;-55
2022/08/10 08:05:22;;;;;;;11.60;2.70;;;;;;;;;;5036013;28;20420;-56
2022/08/10 08:07:49;;;;;;;16.67;9.73;;;;;;;;;;5054220;28;20055;-57
2022/08/10 08:10:16;;;;;;;6.30;3.30;;;;;;;;;;5053652;28;20447;-57
2022/08/10 08:12:42;;;;;;;6.20;1.85;;;;;;;;;;5036235;28;20403;-56
2022/08/10 08:15:09;;;;;;;3.05;1.48;;;;;;;;;;5054418;28;20495;-57
2022/08/10 08:17:36;;;;;;;6.53;2.35;;;;;;;;;;5054242;28;20438;-56
2022/08/10 08:20:02;;;;;;;8.10;1.80;;;;;;;;;;5036525;28;20025;-57
2022/08/10 08:22:29;;;;;;;7.22;1.60;;;;;;;;;;5053885;28;20562;-54
2022/08/10 08:24:56;;;;;;;7.45;1.50;;;;;;;;;;5054338;28;20018;-55
2022/08/10 08:27:23;;;;;;;14.95;2.38;;;;;;;;;;5054235;28;20402;-57
2022/08/10 08:29:50;;;;;;;1.95;1.65;;;;;;;;;;5054334;28;20055;-55
2022/08/10 08:32:27;;;;;;;5.00;1.45;;;;;;;;;;5035974;28;20029;-56
2022/08/10 08:34:55;;;;;;;5.55;1.63;;;;;;;;;;5054038;28;20071;-57
2022/08/10 08:37:23;;;;;;;6.50;1.50;;;;;;;;;;5053854;28;20036;-57
2022/08/10 08:39:49;;;;;;;13.07;2.20;;;;;;;;;;5053882;28;20021;-54
2022/08/10 08:42:16;;;;;;;6.95;1.67;;;;;;;;;;5053120;28;20471;-56
2022/08/10 08:44:42;;;;;;;;;;;;;;;;;;5036185;28;20029;-57
2022/08/10 08:47:40;;;;;;;3.10;1.50;;;;;;;;;;5053854;28;19908;-54
2022/08/10 08:50:24;;;;;;;4.00;1.30;;;;;;;;;;4982797;28;20044;-57
2022/08/10 08:52:58;;;;;;;3.15;1.48;;;;;;;;;;5053839;28;20496;-56
2022/08/10 08:55:28;;;;;;;5.10;1.27;;;;;;;;;;5053507;28;20112;-56
2022/08/10 08:58:00;;;;;;;7.38;1.70;;;;;;;;;;5053656;28;20025;-55
2022/08/10 09:00:29;;;;;;;5.82;1.65;;;;;;;;;;5053511;28;20630;-56
2022/08/10 09:03:14;;;;;;;2.53;1.38;;;;;;;;;;5053312;28;20060;-57
2022/08/10 09:05:50;;;;;;;4.55;1.58;;;;;;;;;;5053424;28;20028;-55
2022/08/10 09:08:25;;;;;;;7.03;1.52;;;;;;;;;;5053436;28;20029;-58
2022/08/10 09:11:00;;;;;;;5.20;1.50;;;;;;;;;;5024216;28;20396;-54
2022/08/10 09:13:32;;;;;;;5.43;1.45;;;;;;;;;;5040519;28;20048;-56
2022/08/10 09:16:04;;;;;;;4.22;1.63;;;;;;;;;;5053483;28;20029;-57
2022/08/10 09:18:33;;;;;;;28.17;3.95;;;;;;;;;;5053401;28;20627;-55
2022/08/10 09:21:09;;;;;;;2.60;1.63;;;;;;;;;;5052973;28;20029;-57
2022/08/10 09:23:54;;;;;;;4.43;1.85;;;;;;;;;;5052687;28;20032;-55
2022/08/10 09:26:21;;;;;;;11.20;2.50;;;;;;;;;;5040955;28;20025;-55
2022/08/10 09:28:49;;;;;;;8.57;1.48;;;;;;;;;;5053004;28;20079;-56
2022/08/10 09:31:18;;;;;;;6.25;1.80;;;;;;;;;;5053345;28;20075;-57
2022/08/10 09:34:02;;;;;;;8.40;1.80;;;;;;;;;;5052779;28;20029;-56
2022/08/10 09:36:48;;;;;;;3.30;2.10;;;;;;;;;;5052690;28;20612;-55
2022/08/10 09:39:24;;;;;;;10.48;2.38;;;;;;;;;;5053144;28;20160;-57
2022/08/10 09:42:04;;;;;;;17.60;2.50;;;;;;;;;;5040991;28;20556;-55
2022/08/10 09:44:30;;;;;;;5.97;1.77;;;;;;;;;;5049071;28;20036;-57
2022/08/10 09:47:02;;;;;;;3.85;1.63;;;;;;;;;;5053010;28;20025;-57
2022/08/10 09:49:37;;;;;;;4.78;1.67;;;;;;;;;;5052769;28;20116;-55
2022/08/10 09:52:13;;;;;;;3.28;1.77;;;;;;;;;;5034678;28;20028;-55
2022/08/10 09:54:39;;;;;;;2.97;1.40;;;;;;;;;;5052118;28;20411;-56
2022/08/10 09:57:05;;;;;;;4.95;1.95;;;;;;;;;;5052591;28;20051;-57
2022/08/10 09:59:34;;;;;;;7.07;2.10;;;;;;;;;;5052306;28;20108;-55
2022/08/10 10:02:09;;;;;;;20.70;3.13;;;;;;;;;;5052602;28;20021;-54
2022/08/10 10:04:47;;;;;;;3.78;1.90;;;;;;;;;;5052312;28;20036;-56
2022/08/10 10:07:17;;;;;;;8.77;2.13;;;;;;;;;;5052196;28;20114;-55
2022/08/10 10:09:52;;;;;;;7.60;1.85;;;;;;;;;;5052187;28;20068;-55
2022/08/10 10:12:37;;;;;;;4.38;1.50;;;;;;;;;;5052306;28;20031;-54
2022/08/10 10:15:21;;;;;;;6.03;1.40;;;;;;;;;;5048618;28;20036;-55
2022/08/10 10:18:00;;;;;;;6.63;1.58;;;;;;;;;;5034353;28;20025;-58
2022/08/10 10:20:35;;;;;;;8.20;1.80;;;;;;;;;;5051997;28;20024;-58
2022/08/10 10:23:04;;;;;;;4.00;1.50;;;;;;;;;;5051796;28;20167;-55
2022/08/10 10:25:35;;;;;;;6.85;1.83;;;;;;;;;;5052022;28;20078;-55
2022/08/10 10:28:30;;;;;;;3.17;1.35;;;;;;;;;;5051936;28;20053;-55
2022/08/10 10:31:05;;;;;;;4.38;1.20;;;;;;;;;;5052128;28;20525;-57
2022/08/10 10:33:44;;;;;;;4.93;1.40;;;;;;;;;;5051611;28;20138;-57
2022/08/10 10:36:11;;;;;;;4.13;1.70;;;;;;;;;;5033252;28;20037;-56
2022/08/10 10:38:39;;;;;;;2.33;1.58;;;;;;;;;;5051569;28;20051;-58
2022/08/10 10:41:05;;;;;;;24.50;2.67;;;;;;;;;;5051673;28;20175;-57
2022/08/10 10:43:31;;;;;;;;;;;;;;;;;;5036583;28;20395;-55
2022/08/10 10:46:03;;;;;;;8.45;1.70;;;;;;;;;;5059924;28;19908;-60
2022/08/10 10:48:38;;;;;;;3.08;1.38;;;;;;;;;;5051186;28;20021;-57
2022/08/10 10:51:23;;;;;;;7.00;2.42;;;;;;;;;;5041678;28;20403;-55
2022/08/10 10:53:49;;;;;;;3.60;1.52;;;;;;;;;;5050950;28;20511;-53
2022/08/10 10:56:15;;;;;;;2.65;1.35;;;;;;;;;;5030808;28;20025;-55
2022/08/10 10:59:00;;;;;;;2.53;1.08;;;;;;;;;;5050305;28;20479;-53
2022/08/10 11:01:29;;;;;;;6.22;1.40;;;;;;;;;;5051220;28;20029;-59
2022/08/10 11:03:58;;;;;;;4.68;1.25;;;;;;;;;;5050800;28;20037;-57
2022/08/10 11:06:44;;;;;;;5.25;1.40;;;;;;;;;;5050836;28;20037;-56
2022/08/10 11:09:13;;;;;;;3.58;1.55;;;;;;;;;;5050843;28;20060;-54
2022/08/10 11:11:42;;;;;;;3.13;1.50;;;;;;;;;;5050805;28;20122;-56
2022/08/10 11:14:17;;;;;;;29.48;15.27;;;;;;;;;;5048155;28;20395;-58
2022/08/10 11:16:49;;;;;;;4.55;2.47;;;;;;;;;;5047108;28;20029;-58
2022/08/10 11:19:34;;;;;;;5.78;1.83;;;;;;;;;;5049189;28;20411;-58
2022/08/10 11:22:10;;;;;;;5.35;2.00;;;;;;;;;;5049748;28;20029;-57
2022/08/10 11:24:41;;;;;;;4.97;1.15;;;;;;;;;;5050990;28;20104;-57
2022/08/10 11:27:07;;;;;;;3.75;1.40;;;;;;;;;;5050761;28;20032;-57
2022/08/10 11:29:38;;;;;;;5.78;1.40;;;;;;;;;;5051042;28;20021;-58
2022/08/10 11:32:04;;;;;;;5.35;1.33;;;;;;;;;;5024202;28;20021;-55
2022/08/10 11:34:46;;;;;;;2.88;1.60;;;;;;;;;;5050522;28;20074;-57
2022/08/10 11:37:21;;;;;;;4.63;2.25;;;;;;;;;;5050618;28;20021;-57
2022/08/10 11:40:07;;;;;;;8.13;1.70;;;;;;;;;;5050562;28;20029;-57
2022/08/10 11:42:39;;;;;;;5.72;2.10;;;;;;;;;;5050361;28;20021;-58
2022/08/10 11:45:21;;;;;;;3.55;2.08;;;;;;;;;;5052006;28;20025;-59
2022/08/10 11:47:56;;;;;;;6.95;1.52;;;;;;;;;;5049632;28;20085;-57
2022/08/10 11:50:29;;;;;;;7.25;1.40;;;;;;;;;;5050336;28;20368;-57
2022/08/10 11:52:58;;;;;;;4.07;1.30;;;;;;;;;;5050685;28;20032;-56
2022/08/10 11:55:34;;;;;;;6.53;1.63;;;;;;;;;;5050417;28;20033;-57
2022/08/10 11:59:55;;;;;;;3.45;1.27;;;;;;;;;;5050611;28;20109;-55
2022/08/10 12:00:56;;;;;;;6.28;1.63;;;;;;;;;;5049733;28;20037;-56
2022/08/10 12:03:23;;;;;;;3.63;1.38;;;;;;;;;;5050662;28;20456;-57
2022/08/10 12:05:51;;;;;;;5.00;1.70;;;;;;;;;;5049855;28;20074;-58
2022/08/10 12:08:18;;;;;;;8.07;1.50;;;;;;;;;;5044858;28;20021;-57
2022/08/10 12:10:45;;;;;;;7.28;1.38;;;;;;;;;;5033035;28;20064;-57
2022/08/10 12:13:14;;;;;;;5.90;2.35;;;;;;;;;;5050122;28;20021;-57
2022/08/10 12:15:46;;;;;;;3.95;1.13;;;;;;;;;;5049652;28;20033;-57
2022/08/10 12:18:19;;;;;;;5.95;1.88;;;;;;;;;;5052696;28;20049;-56
2022/08/10 12:20:49;;;;;;;7.03;2.35;;;;;;;;;;5054432;28;20079;-57
2022/08/10 12:23:34;;;;;;;4.95;1.30;;;;;;;;;;5053807;28;20032;-57
2022/08/10 12:26:07;;;;;;;2.92;1.30;;;;;;;;;;5052554;28;20518;-57
2022/08/10 12:28:33;;;;;;;4.60;1.30;;;;;;;;;;5053840;28;20022;-58
2022/08/10 12:31:01;;;;;;;5.13;1.83;;;;;;;;;;5054260;28;20025;-57
2022/08/10 12:33:38;;;;;;;5.53;1.42;;;;;;;;;;5053690;28;20352;-55
2022/08/10 12:36:20;;;;;;;4.53;1.40;;;;;;;;;;5053564;28;20032;-57
2022/08/10 12:38:56;;;;;;;3.45;1.63;;;;;;;;;;5053414;28;20045;-58
2022/08/10 12:41:29;;;;;;;6.63;1.55;;;;;;;;;;5036144;28;20549;-56
2022/08/10 12:43:58;;;;;;;4.53;1.30;;;;;;;;;;5053441;28;20136;-57
2022/08/10 12:46:50;;;;;;;4.43;1.25;;;;;;;;;;5035385;28;20377;-55
2022/08/10 12:49:29;;;;;;;3.50;1.40;;;;;;;;;;5015996;28;20658;-57
2022/08/10 12:51:59;;;;;;;3.47;1.40;;;;;;;;;;5053125;28;20029;-56
2022/08/10 12:54:25;;;;;;;1.80;1.20;;;;;;;;;;5053065;28;20067;-58
2022/08/10 12:56:58;;;;;;;4.32;1.27;;;;;;;;;;5035533;28;20489;-57
2022/08/10 12:59:26;;;;;;;3.97;1.20;;;;;;;;;;5053546;28;20025;-57
2022/08/10 13:01:53;;;;;;;5.63;2.22;;;;;;;;;;5035669;28;20029;-57
2022/08/10 13:04:25;;;;;;;3.50;1.40;;;;;;;;;;5035394;28;20083;-58
2022/08/10 13:06:51;;;;;;;3.90;1.65;;;;;;;;;;5053102;28;20033;-58
2022/08/10 13:09:21;;;;;;;4.45;1.30;;;;;;;;;;5035399;28;20025;-58
2022/08/10 13:12:08;;;;;;;5.78;2.13;;;;;;;;;;5035445;28;20021;-58
2022/08/10 13:14:37;;;;;;;1.42;1.15;;;;;;;;;;5051717;28;20025;-57
2022/08/10 13:17:06;;;;;;;4.68;1.67;;;;;;;;;;5052728;28;20137;-57
2022/08/10 13:19:40;;;;;;;4.32;1.83;;;;;;;;;;5052821;28;20025;-59
2022/08/10 13:22:07;;;;;;;3.15;1.55;;;;;;;;;;5052434;28;20562;-58
2022/08/10 13:24:36;;;;;;;6.32;1.50;;;;;;;;;;5052438;28;20054;-59
2022/08/10 13:27:07;;;;;;;2.40;1.25;;;;;;;;;;5053158;28;20035;-58
2022/08/10 13:29:43;;;;;;;2.15;1.20;;;;;;;;;;5052216;28;20021;-55
2022/08/10 13:32:10;;;;;;;3.85;1.42;;;;;;;;;;5052706;28;20049;-58
2022/08/10 13:34:38;;;;;;;3.08;1.20;;;;;;;;;;5052657;28;20459;-58
2022/08/10 13:37:08;;;;;;;5.82;1.55;;;;;;;;;;5034739;28;20032;-57
2022/08/10 13:39:39;;;;;;;2.13;1.30;;;;;;;;;;5052881;28;20096;-56
2022/08/10 13:42:08;;;;;;;5.25;1.30;;;;;;;;;;5034667;28;20036;-56
2022/08/10 13:44:37;;;;;;;3.40;1.42;;;;;;;;;;5052278;28;20063;-57
2022/08/10 13:47:03;;;;;;;2.17;1.30;;;;;;;;;;5052260;28;20021;-56
2022/08/10 13:49:30;;;;;;;3.97;1.63;;;;;;;;;;5052258;28;20021;-57
2022/08/10 13:51:57;;;;;;;1.70;1.30;;;;;;;;;;5052412;28;20407;-57
2022/08/10 13:54:24;;;;;;;4.68;1.38;;;;;;;;;;5034020;28;20029;-56
2022/08/10 13:56:51;;;;;;;8.48;1.77;;;;;;;;;;5052846;28;20060;-55
2022/08/10 13:59:18;;;;;;;2.40;1.40;;;;;;;;;;5058159;28;20123;-57
2022/08/10 14:01:48;;;;;;;3.28;1.17;;;;;;;;;;5052470;28;20506;-57
2022/08/10 14:04:15;;;;;;;4.68;1.50;;;;;;;;;;5052043;28;20459;-58
2022/08/10 14:06:41;;;;;;;2.38;1.58;;;;;;;;;;5051960;28;20082;-57
2022/08/10 14:09:10;;;;;;;4.65;1.75;;;;;;;;;;5050585;28;20020;-58
2022/08/10 14:11:38;;;;;;;3.45;1.77;;;;;;;;;;5040042;28;20472;-58
2022/08/10 14:14:04;;;;;;;1.83;1.30;;;;;;;;;;5042934;28;20028;-58
2022/08/10 14:16:31;;;;;;;5.45;1.52;;;;;;;;;;5035475;28;20053;-59
2022/08/10 14:18:59;;;;;;;3.55;1.27;;;;;;;;;;5035642;28;20473;-58
2022/08/10 14:21:25;;;;;;;6.40;1.80;;;;;;;;;;5049773;28;20043;-57
2022/08/10 14:23:51;;;;;;;1.95;1.30;;;;;;;;;;5051555;28;20036;-58
2022/08/10 14:26:25;;;;;;;5.25;1.85;;;;;;;;;;5033905;28;20021;-59
2022/08/10 14:28:56;;;;;;;4.57;1.50;;;;;;;;;;5051916;28;20100;-58
2022/08/10 14:31:24;;;;;;;4.40;1.67;;;;;;;;;;5052199;28;20052;-59
2022/08/10 14:33:53;;;;;;;4.38;1.65;;;;;;;;;;5051688;28;20449;-59
2022/08/10 14:36:24;;;;;;;4.13;1.50;;;;;;;;;;5036947;28;20041;-59
2022/08/10 14:38:53;;;;;;;4.50;1.30;;;;;;;;;;5015172;28;20496;-58
2022/08/10 14:41:24;;;;;;;1.50;1.13;;;;;;;;;;5032078;28;20499;-59
2022/08/10 14:44:00;;;;;;;2.97;1.38;;;;;;;;;;5032829;28;20025;-59
2022/08/10 14:46:27;;;;;;;2.58;1.60;;;;;;;;;;5049541;28;20479;-57
2022/08/10 14:48:54;;;;;;;2.13;1.48;;;;;;;;;;5049129;28;20040;-58
2022/08/10 14:51:25;;;;;;;6.10;1.63;;;;;;;;;;5050647;28;20029;-58
2022/08/10 14:53:53;;;;;;;6.30;1.58;;;;;;;;;;5033424;28;20023;-58
2022/08/10 14:56:24;;;;;;;5.30;1.58;;;;;;;;;;5033358;28;20028;-58
2022/08/10 14:58:56;;;;;;;2.92;1.67;;;;;;;;;;5050871;28;20086;-59